sensor_id;sensor_type;location;lat;lon;timestamp;pressure;altitude;pressure_sealevel;temperature;humidity
61554;BME280;47425;51.976;5.326;2023-12-20T00:01:46;101437.75;;;13.20;56.13
61554;BME280;47425;51.976;5.326;2023-12-20T00:04:13;101438.22;;;13.39;55.79
61554;BME280;47425;51.976;5.326;2023-12-20T00:06:39;101428.38;;;13.48;55.62
61554;BME280;47425;51.976;5.326;2023-12-20T00:09:08;101428.34;;;13.49;55.41
61554;BME280;47425;51.976;5.326;2023-12-20T00:11:35;101422.06;;;13.56;56.18
61554;BME280;47425;51.976;5.326;2023-12-20T00:14:01;101423.41;;;13.73;55.57
61554;BME280;47425;51.976;5.326;2023-12-20T00:16:28;101418.00;;;13.79;55.46
61554;BME280;47425;51.976;5.326;2023-12-20T00:18:54;101421.97;;;13.96;55.56
61554;BME280;47425;51.976;5.326;2023-12-20T00:21:22;101428.63;;;14.10;54.77
61554;BME280;47425;51.976;5.326;2023-12-20T00:23:49;101417.66;;;14.27;53.69
61554;BME280;47425;51.976;5.326;2023-12-20T00:26:16;101417.53;;;14.32;54.29
61554;BME280;47425;51.976;5.326;2023-12-20T00:28:43;101420.81;;;14.40;53.75
61554;BME280;47425;51.976;5.326;2023-12-20T00:31:09;101419.84;;;14.43;53.06
61554;BME280;47425;51.976;5.326;2023-12-20T00:33:36;101426.03;;;14.42;53.63
61554;BME280;47425;51.976;5.326;2023-12-20T00:36:02;101423.00;;;14.57;53.84
61554;BME280;47425;51.976;5.326;2023-12-20T00:38:29;101413.41;;;14.55;53.04
61554;BME280;47425;51.976;5.326;2023-12-20T00:40:55;101423.88;;;14.56;53.20
61554;BME280;47425;51.976;5.326;2023-12-20T00:43:23;101424.03;;;14.52;53.09
61554;BME280;47425;51.976;5.326;2023-12-20T00:45:50;101425.09;;;14.44;52.87
61554;BME280;47425;51.976;5.326;2023-12-20T00:48:17;101428.97;;;14.31;53.60
61554;BME280;47425;51.976;5.326;2023-12-20T00:50:44;101423.94;;;14.22;53.91
61554;BME280;47425;51.976;5.326;2023-12-20T00:53:10;101420.25;;;14.29;53.65
61554;BME280;47425;51.976;5.326;2023-12-20T00:55:37;101418.56;;;14.26;53.86
61554;BME280;47425;51.976;5.326;2023-12-20T00:58:03;101424.47;;;14.35;53.12
61554;BME280;47425;51.976;5.326;2023-12-20T01:00:32;101414.72;;;14.38;53.58
61554;BME280;47425;51.976;5.326;2023-12-20T01:02:59;101419.81;;;14.44;53.41
61554;BME280;47425;51.976;5.326;2023-12-20T01:05:25;101415.50;;;14.42;52.86
61554;BME280;47425;51.976;5.326;2023-12-20T01:07:52;101418.41;;;14.31;53.26
61554;BME280;47425;51.976;5.326;2023-12-20T01:10:18;101413.72;;;14.42;53.52
61554;BME280;47425;51.976;5.326;2023-12-20T01:12:46;101414.19;;;14.57;53.36
61554;BME280;47425;51.976;5.326;2023-12-20T01:15:12;101418.44;;;14.64;53.07
61554;BME280;47425;51.976;5.326;2023-12-20T01:17:40;101408.44;;;14.75;53.03
61554;BME280;47425;51.976;5.326;2023-12-20T01:20:07;101407.41;;;14.81;53.11
61554;BME280;47425;51.976;5.326;2023-12-20T01:22:33;101417.81;;;14.86;52.81
61554;BME280;47425;51.976;5.326;2023-12-20T01:25:02;101407.50;;;14.78;52.36
61554;BME280;47425;51.976;5.326;2023-12-20T01:27:28;101405.81;;;14.75;52.41
61554;BME280;47425;51.976;5.326;2023-12-20T01:29:56;101414.19;;;14.58;52.59
61554;BME280;47425;51.976;5.326;2023-12-20T01:32:22;101417.72;;;14.57;52.14
61554;BME280;47425;51.976;5.326;2023-12-20T01:34:50;101426.72;;;14.49;52.47
61554;BME280;47425;51.976;5.326;2023-12-20T01:37:18;101421.63;;;14.42;52.51
61554;BME280;47425;51.976;5.326;2023-12-20T01:39:44;101415.59;;;14.39;53.18
61554;BME280;47425;51.976;5.326;2023-12-20T01:42:10;101414.13;;;14.27;52.50
61554;BME280;47425;51.976;5.326;2023-12-20T01:44:37;101410.97;;;14.14;53.39
61554;BME280;47425;51.976;5.326;2023-12-20T01:47:04;101414.66;;;14.07;53.02
61554;BME280;47425;51.976;5.326;2023-12-20T01:49:31;101407.03;;;13.96;53.36
61554;BME280;47425;51.976;5.326;2023-12-20T01:51:59;101411.44;;;13.96;53.79
61554;BME280;47425;51.976;5.326;2023-12-20T01:54:25;101427.13;;;14.00;53.68
61554;BME280;47425;51.976;5.326;2023-12-20T01:56:52;101420.81;;;14.07;53.66
61554;BME280;47425;51.976;5.326;2023-12-20T01:59:18;101418.69;;;14.20;53.99
61554;BME280;47425;51.976;5.326;2023-12-20T02:01:47;101408.09;;;14.23;53.25
61554;BME280;47425;51.976;5.326;2023-12-20T02:04:14;101411.44;;;14.30;53.26
61554;BME280;47425;51.976;5.326;2023-12-20T02:06:41;101402.13;;;14.17;53.29
61554;BME280;47425;51.976;5.326;2023-12-20T02:09:10;101413.81;;;14.06;53.24
61554;BME280;47425;51.976;5.326;2023-12-20T02:11:36;101408.34;;;14.14;53.56
61554;BME280;47425;51.976;5.326;2023-12-20T02:14:04;101409.81;;;14.24;53.38
61554;BME280;47425;51.976;5.326;2023-12-20T02:16:30;101411.34;;;14.33;53.66
61554;BME280;47425;51.976;5.326;2023-12-20T02:18:57;101412.13;;;14.37;52.82
61554;BME280;47425;51.976;5.326;2023-12-20T02:21:25;101404.13;;;14.40;53.37
61554;BME280;47425;51.976;5.326;2023-12-20T02:23:57;101411.66;;;14.54;53.22
61554;BME280;47425;51.976;5.326;2023-12-20T02:26:24;101408.94;;;14.57;52.71
61554;BME280;47425;51.976;5.326;2023-12-20T02:28:50;101402.09;;;14.50;52.32
61554;BME280;47425;51.976;5.326;2023-12-20T02:31:17;101395.78;;;14.24;52.75
61554;BME280;47425;51.976;5.326;2023-12-20T02:33:46;101393.19;;;14.22;53.43
61554;BME280;47425;51.976;5.326;2023-12-20T02:36:13;101397.59;;;14.22;52.98
61554;BME280;47425;51.976;5.326;2023-12-20T02:38:40;101393.44;;;14.13;53.48
61554;BME280;47425;51.976;5.326;2023-12-20T02:41:08;101396.03;;;14.15;53.57
61554;BME280;47425;51.976;5.326;2023-12-20T02:43:35;101398.50;;;14.21;53.77
61554;BME280;47425;51.976;5.326;2023-12-20T02:46:01;101401.63;;;14.35;53.77
61554;BME280;47425;51.976;5.326;2023-12-20T02:48:27;101391.56;;;14.50;52.98
61554;BME280;47425;51.976;5.326;2023-12-20T02:50:54;101390.47;;;14.57;52.53
61554;BME280;47425;51.976;5.326;2023-12-20T02:53:22;101386.00;;;14.60;52.65
61554;BME280;47425;51.976;5.326;2023-12-20T02:55:49;101385.91;;;14.65;52.39
61554;BME280;47425;51.976;5.326;2023-12-20T02:58:16;101388.50;;;14.67;52.24
61554;BME280;47425;51.976;5.326;2023-12-20T03:00:43;101389.78;;;14.52;52.03
61554;BME280;47425;51.976;5.326;2023-12-20T03:03:10;101382.72;;;14.52;52.53
61554;BME280;47425;51.976;5.326;2023-12-20T03:05:37;101374.72;;;14.55;52.15
61554;BME280;47425;51.976;5.326;2023-12-20T03:08:04;101370.44;;;14.51;52.19
61554;BME280;47425;51.976;5.326;2023-12-20T03:10:30;101366.66;;;14.30;52.48
61554;BME280;47425;51.976;5.326;2023-12-20T03:12:58;101359.72;;;14.26;52.51
61554;BME280;47425;51.976;5.326;2023-12-20T03:15:25;101369.34;;;14.27;53.41
61554;BME280;47425;51.976;5.326;2023-12-20T03:17:52;101367.56;;;14.29;52.39
61554;BME280;47425;51.976;5.326;2023-12-20T03:20:19;101369.28;;;14.30;52.33
61554;BME280;47425;51.976;5.326;2023-12-20T03:22:45;101375.66;;;14.21;53.04
61554;BME280;47425;51.976;5.326;2023-12-20T03:25:12;101369.59;;;14.18;52.65
61554;BME280;47425;51.976;5.326;2023-12-20T03:27:38;101371.28;;;14.20;52.70
61554;BME280;47425;51.976;5.326;2023-12-20T03:30:08;101357.50;;;14.10;52.58
61554;BME280;47425;51.976;5.326;2023-12-20T03:32:34;101370.16;;;13.96;52.63
61554;BME280;47425;51.976;5.326;2023-12-20T03:35:01;101368.41;;;13.97;53.02
61554;BME280;47425;51.976;5.326;2023-12-20T03:37:27;101363.38;;;13.87;53.82
61554;BME280;47425;51.976;5.326;2023-12-20T03:39:54;101362.56;;;13.85;54.19
61554;BME280;47425;51.976;5.326;2023-12-20T03:42:21;101368.53;;;13.92;53.98
61554;BME280;47425;51.976;5.326;2023-12-20T03:44:48;101360.63;;;13.92;53.41
61554;BME280;47425;51.976;5.326;2023-12-20T03:47:16;101364.09;;;13.94;53.58
61554;BME280;47425;51.976;5.326;2023-12-20T03:49:42;101373.50;;;14.03;53.45
61554;BME280;47425;51.976;5.326;2023-12-20T03:52:09;101376.41;;;13.92;53.13
61554;BME280;47425;51.976;5.326;2023-12-20T03:54:36;101375.41;;;13.63;53.90
61554;BME280;47425;51.976;5.326;2023-12-20T03:57:03;101371.03;;;13.62;54.28
61554;BME280;47425;51.976;5.326;2023-12-20T03:59:29;101377.28;;;13.58;54.12
61554;BME280;47425;51.976;5.326;2023-12-20T04:01:56;101375.59;;;13.55;54.39
61554;BME280;47425;51.976;5.326;2023-12-20T04:04:24;101369.81;;;13.75;54.58
61554;BME280;47425;51.976;5.326;2023-12-20T04:06:51;101369.66;;;13.82;54.19
61554;BME280;47425;51.976;5.326;2023-12-20T04:09:17;101369.81;;;13.75;53.75
61554;BME280;47425;51.976;5.326;2023-12-20T04:11:44;101366.44;;;13.70;54.50
61554;BME280;47425;51.976;5.326;2023-12-20T04:14:10;101362.50;;;13.87;54.11
61554;BME280;47425;51.976;5.326;2023-12-20T04:16:37;101365.00;;;13.93;53.90
61554;BME280;47425;51.976;5.326;2023-12-20T04:19:04;101363.91;;;14.00;53.70
61554;BME280;47425;51.976;5.326;2023-12-20T04:21:32;101357.91;;;13.95;53.81
61554;BME280;47425;51.976;5.326;2023-12-20T04:23:58;101365.81;;;13.95;53.32
61554;BME280;47425;51.976;5.326;2023-12-20T04:26:25;101356.53;;;13.80;53.43
61554;BME280;47425;51.976;5.326;2023-12-20T04:28:51;101355.81;;;13.73;54.39
61554;BME280;47425;51.976;5.326;2023-12-20T04:31:17;101345.09;;;13.81;53.53
61554;BME280;47425;51.976;5.326;2023-12-20T04:33:44;101348.06;;;13.69;53.30
61554;BME280;47425;51.976;5.326;2023-12-20T04:36:10;101347.22;;;13.67;54.58
61554;BME280;47425;51.976;5.326;2023-12-20T04:38:38;101355.06;;;13.70;54.36
61554;BME280;47425;51.976;5.326;2023-12-20T04:41:04;101353.31;;;13.69;54.50
61554;BME280;47425;51.976;5.326;2023-12-20T04:43:31;101365.59;;;13.68;54.25
61554;BME280;47425;51.976;5.326;2023-12-20T04:45:58;101366.63;;;13.63;54.06
61554;BME280;47425;51.976;5.326;2023-12-20T04:48:24;101359.25;;;13.41;54.14
61554;BME280;47425;51.976;5.326;2023-12-20T04:50:51;101354.56;;;13.54;53.68
61554;BME280;47425;51.976;5.326;2023-12-20T04:53:17;101357.84;;;13.64;54.26
61554;BME280;47425;51.976;5.326;2023-12-20T04:55:45;101357.84;;;13.64;53.42
61554;BME280;47425;51.976;5.326;2023-12-20T04:58:11;101345.69;;;13.58;54.39
61554;BME280;47425;51.976;5.326;2023-12-20T05:00:38;101340.56;;;13.52;53.87
61554;BME280;47425;51.976;5.326;2023-12-20T05:03:04;101345.22;;;13.42;53.57
61554;BME280;47425;51.976;5.326;2023-12-20T05:05:30;101335.72;;;13.33;53.95
61554;BME280;47425;51.976;5.326;2023-12-20T05:07:57;101333.19;;;13.30;53.96
61554;BME280;47425;51.976;5.326;2023-12-20T05:10:23;101335.66;;;13.38;54.54
61554;BME280;47425;51.976;5.326;2023-12-20T05:12:51;101332.94;;;13.41;54.17
61554;BME280;47425;51.976;5.326;2023-12-20T05:15:17;101333.00;;;13.39;54.63
61554;BME280;47425;51.976;5.326;2023-12-20T05:17:44;101335.47;;;13.46;53.77
61554;BME280;47425;51.976;5.326;2023-12-20T05:20:10;101342.28;;;13.54;54.13
61554;BME280;47425;51.976;5.326;2023-12-20T05:22:38;101332.69;;;13.52;54.23
61554;BME280;47425;51.976;5.326;2023-12-20T05:25:05;101341.38;;;13.55;54.48
61554;BME280;47425;51.976;5.326;2023-12-20T05:27:31;101344.81;;;13.57;53.51
61554;BME280;47425;51.976;5.326;2023-12-20T05:29:59;101339.53;;;13.59;53.98
61554;BME280;47425;51.976;5.326;2023-12-20T05:32:25;101345.53;;;13.66;54.17
61554;BME280;47425;51.976;5.326;2023-12-20T05:34:53;101339.97;;;13.76;53.64
61554;BME280;47425;51.976;5.326;2023-12-20T05:37:19;101342.91;;;13.64;53.32
61554;BME280;47425;51.976;5.326;2023-12-20T05:39:47;101342.31;;;13.53;53.17
61554;BME280;47425;51.976;5.326;2023-12-20T05:42:14;101345.97;;;13.47;54.18
61554;BME280;47425;51.976;5.326;2023-12-20T05:44:41;101352.63;;;13.62;54.15
61554;BME280;47425;51.976;5.326;2023-12-20T05:47:09;101352.13;;;13.46;53.40
61554;BME280;47425;51.976;5.326;2023-12-20T05:49:36;101361.06;;;13.39;54.61
61554;BME280;47425;51.976;5.326;2023-12-20T05:52:02;101363.53;;;13.45;54.13
61554;BME280;47425;51.976;5.326;2023-12-20T05:54:29;101353.25;;;13.34;54.26
61554;BME280;47425;51.976;5.326;2023-12-20T05:56:55;101352.53;;;13.27;54.13
61554;BME280;47425;51.976;5.326;2023-12-20T05:59:21;101343.69;;;13.30;54.46
61554;BME280;47425;51.976;5.326;2023-12-20T06:01:48;101342.53;;;13.43;54.98
61554;BME280;47425;51.976;5.326;2023-12-20T06:04:16;101342.13;;;13.61;54.78
61554;BME280;47425;51.976;5.326;2023-12-20T06:06:42;101340.03;;;13.37;54.58
61554;BME280;47425;51.976;5.326;2023-12-20T06:09:09;101333.25;;;13.27;54.79
61554;BME280;47425;51.976;5.326;2023-12-20T06:11:36;101336.50;;;13.38;55.00
61554;BME280;47425;51.976;5.326;2023-12-20T06:14:02;101340.75;;;13.46;54.65
61554;BME280;47425;51.976;5.326;2023-12-20T06:16:29;101339.81;;;13.47;55.09
61554;BME280;47425;51.976;5.326;2023-12-20T06:18:55;101344.72;;;13.62;54.78
61554;BME280;47425;51.976;5.326;2023-12-20T06:21:24;101344.06;;;13.54;54.39
61554;BME280;47425;51.976;5.326;2023-12-20T06:23:51;101343.47;;;13.41;54.14
61554;BME280;47425;51.976;5.326;2023-12-20T06:26:17;101343.63;;;13.33;54.49
61554;BME280;47425;51.976;5.326;2023-12-20T06:28:44;101348.84;;;13.36;54.85
61554;BME280;47425;51.976;5.326;2023-12-20T06:31:10;101352.56;;;13.26;55.15
61554;BME280;47425;51.976;5.326;2023-12-20T06:33:36;101351.50;;;13.36;55.13
61554;BME280;47425;51.976;5.326;2023-12-20T06:36:05;101351.78;;;13.60;55.00
61554;BME280;47425;51.976;5.326;2023-12-20T06:38:33;101355.38;;;13.56;54.21
61554;BME280;47425;51.976;5.326;2023-12-20T06:41:00;101348.56;;;13.49;54.90
61554;BME280;47425;51.976;5.326;2023-12-20T06:43:26;101346.44;;;13.63;54.80
61554;BME280;47425;51.976;5.326;2023-12-20T06:45:53;101346.88;;;13.81;55.23
61554;BME280;47425;51.976;5.326;2023-12-20T06:48:21;101332.31;;;14.00;54.43
61554;BME280;47425;51.976;5.326;2023-12-20T06:50:47;101329.53;;;14.06;54.37
61554;BME280;47425;51.976;5.326;2023-12-20T06:53:14;101335.75;;;14.04;54.10
61554;BME280;47425;51.976;5.326;2023-12-20T06:55:41;101329.31;;;14.14;54.12
61554;BME280;47425;51.976;5.326;2023-12-20T06:58:08;101329.94;;;14.24;53.11
61554;BME280;47425;51.976;5.326;2023-12-20T07:00:36;101333.53;;;13.87;53.26
61554;BME280;47425;51.976;5.326;2023-12-20T07:03:03;101334.78;;;13.73;53.87
61554;BME280;47425;51.976;5.326;2023-12-20T07:05:29;101330.94;;;13.52;54.80
61554;BME280;47425;51.976;5.326;2023-12-20T07:07:56;101328.34;;;13.49;54.99
61554;BME280;47425;51.976;5.326;2023-12-20T07:10:22;101322.13;;;13.53;54.54
61554;BME280;47425;51.976;5.326;2023-12-20T07:12:52;101321.34;;;13.50;55.47
61554;BME280;47425;51.976;5.326;2023-12-20T07:15:20;101319.97;;;13.69;54.98
61554;BME280;47425;51.976;5.326;2023-12-20T07:17:46;101324.47;;;13.66;54.79
61554;BME280;47425;51.976;5.326;2023-12-20T07:20:13;101325.41;;;13.62;54.35
61554;BME280;47425;51.976;5.326;2023-12-20T07:22:39;101318.97;;;13.73;55.43
61554;BME280;47425;51.976;5.326;2023-12-20T07:25:07;101318.09;;;14.07;54.80
61554;BME280;47425;51.976;5.326;2023-12-20T07:27:34;101318.50;;;14.25;53.82
61554;BME280;47425;51.976;5.326;2023-12-20T07:30:02;101307.84;;;14.28;53.85
61554;BME280;47425;51.976;5.326;2023-12-20T07:32:28;101303.69;;;14.19;53.55
61554;BME280;47425;51.976;5.326;2023-12-20T07:34:55;101313.53;;;14.14;53.67
61554;BME280;47425;51.976;5.326;2023-12-20T07:37:23;101301.25;;;14.13;54.32
61554;BME280;47425;51.976;5.326;2023-12-20T07:39:50;101304.31;;;14.29;53.64
61554;BME280;47425;51.976;5.326;2023-12-20T07:42:17;101303.97;;;14.41;53.10
61554;BME280;47425;51.976;5.326;2023-12-20T07:44:45;101311.50;;;14.24;53.38
61554;BME280;47425;51.976;5.326;2023-12-20T07:47:13;101314.13;;;14.24;53.99
61554;BME280;47425;51.976;5.326;2023-12-20T07:49:44;101312.09;;;14.34;53.45
61554;BME280;47425;51.976;5.326;2023-12-20T07:52:10;101305.91;;;14.35;53.59
61554;BME280;47425;51.976;5.326;2023-12-20T07:54:36;101314.25;;;14.51;53.01
61554;BME280;47425;51.976;5.326;2023-12-20T07:57:03;101316.88;;;14.51;53.21
61554;BME280;47425;51.976;5.326;2023-12-20T07:59:30;101327.41;;;14.51;52.64
61554;BME280;47425;51.976;5.326;2023-12-20T08:01:57;101332.94;;;14.41;52.92
61554;BME280;47425;51.976;5.326;2023-12-20T08:04:25;101328.47;;;14.43;53.24
61554;BME280;47425;51.976;5.326;2023-12-20T08:06:52;101336.47;;;14.40;52.79
61554;BME280;47425;51.976;5.326;2023-12-20T08:09:18;101338.63;;;14.27;53.54
61554;BME280;47425;51.976;5.326;2023-12-20T08:11:45;101341.47;;;14.20;53.06
61554;BME280;47425;51.976;5.326;2023-12-20T08:14:13;101343.19;;;14.21;53.78
61554;BME280;47425;51.976;5.326;2023-12-20T08:16:40;101331.22;;;14.40;53.29
61554;BME280;47425;51.976;5.326;2023-12-20T08:19:06;101335.94;;;14.29;53.48
61554;BME280;47425;51.976;5.326;2023-12-20T08:21:34;101329.66;;;14.33;53.47
61554;BME280;47425;51.976;5.326;2023-12-20T08:24:00;101335.06;;;14.29;53.39
61554;BME280;47425;51.976;5.326;2023-12-20T08:26:28;101338.56;;;14.29;52.64
61554;BME280;47425;51.976;5.326;2023-12-20T08:28:54;101334.47;;;14.19;53.14
61554;BME280;47425;51.976;5.326;2023-12-20T08:31:21;101330.31;;;14.10;53.43
61554;BME280;47425;51.976;5.326;2023-12-20T08:33:48;101326.66;;;14.16;52.59
61554;BME280;47425;51.976;5.326;2023-12-20T08:36:14;101327.63;;;14.12;53.64
61554;BME280;47425;51.976;5.326;2023-12-20T08:38:45;101323.66;;;13.97;53.85
61554;BME280;47425;51.976;5.326;2023-12-20T08:41:12;101323.56;;;14.00;54.22
61554;BME280;47425;51.976;5.326;2023-12-20T08:43:39;101327.06;;;14.00;53.91
61554;BME280;47425;51.976;5.326;2023-12-20T08:46:05;101324.41;;;14.00;53.89
61554;BME280;47425;51.976;5.326;2023-12-20T08:48:32;101327.88;;;14.02;53.91
61554;BME280;47425;51.976;5.326;2023-12-20T08:50:59;101315.16;;;14.18;53.77
61554;BME280;47425;51.976;5.326;2023-12-20T08:53:26;101327.00;;;14.03;53.13
61554;BME280;47425;51.976;5.326;2023-12-20T08:55:53;101326.16;;;14.01;53.11
61554;BME280;47425;51.976;5.326;2023-12-20T08:58:20;101321.03;;;13.95;53.90
61554;BME280;47425;51.976;5.326;2023-12-20T09:00:46;101329.63;;;14.03;54.13
61554;BME280;47425;51.976;5.326;2023-12-20T09:03:14;101323.88;;;14.20;53.60
61554;BME280;47425;51.976;5.326;2023-12-20T09:05:41;101325.84;;;14.12;53.12
61554;BME280;47425;51.976;5.326;2023-12-20T09:08:06;101316.47;;;14.03;53.65
61554;BME280;47425;51.976;5.326;2023-12-20T09:10:35;101316.81;;;13.89;53.35
61554;BME280;47425;51.976;5.326;2023-12-20T09:13:03;101324.59;;;13.94;54.22
61554;BME280;47425;51.976;5.326;2023-12-20T09:15:30;101322.06;;;13.89;52.95
61554;BME280;47425;51.976;5.326;2023-12-20T09:17:57;101326.81;;;13.75;54.12
61554;BME280;47425;51.976;5.326;2023-12-20T09:20:24;101314.69;;;13.69;53.84
61554;BME280;47425;51.976;5.326;2023-12-20T09:22:50;101323.56;;;13.65;54.19
61554;BME280;47425;51.976;5.326;2023-12-20T09:25:16;101320.63;;;13.43;54.04
61554;BME280;47425;51.976;5.326;2023-12-20T09:27:43;101309.59;;;13.27;54.67
61554;BME280;47425;51.976;5.326;2023-12-20T09:30:11;101310.34;;;13.32;55.16
61554;BME280;47425;51.976;5.326;2023-12-20T09:32:38;101307.00;;;13.24;55.09
61554;BME280;47425;51.976;5.326;2023-12-20T09:35:05;101314.63;;;13.38;54.70
61554;BME280;47425;51.976;5.326;2023-12-20T09:37:31;101322.06;;;13.55;54.14
61554;BME280;47425;51.976;5.326;2023-12-20T09:39:58;101320.94;;;13.65;54.72
61554;BME280;47425;51.976;5.326;2023-12-20T09:42:29;101315.13;;;13.87;54.65
61554;BME280;47425;51.976;5.326;2023-12-20T09:44:58;101313.97;;;13.97;53.75
61554;BME280;47425;51.976;5.326;2023-12-20T09:47:31;101310.88;;;13.81;54.07
61554;BME280;47425;51.976;5.326;2023-12-20T09:49:58;101321.19;;;13.56;54.04
61554;BME280;47425;51.976;5.326;2023-12-20T09:52:25;101317.75;;;13.54;54.49
61554;BME280;47425;51.976;5.326;2023-12-20T09:54:53;101321.84;;;13.64;54.47
61554;BME280;47425;51.976;5.326;2023-12-20T09:57:20;101323.25;;;13.77;54.21
61554;BME280;47425;51.976;5.326;2023-12-20T09:59:47;101321.50;;;13.78;53.85
61554;BME280;47425;51.976;5.326;2023-12-20T10:02:14;101317.28;;;13.71;54.08
61554;BME280;47425;51.976;5.326;2023-12-20T10:04:44;101312.47;;;13.54;53.39
61554;BME280;47425;51.976;5.326;2023-12-20T10:07:13;101329.34;;;13.45;54.68
61554;BME280;47425;51.976;5.326;2023-12-20T10:09:40;101332.59;;;13.56;54.59
61554;BME280;47425;51.976;5.326;2023-12-20T10:12:07;101329.72;;;13.64;54.26
61554;BME280;47425;51.976;5.326;2023-12-20T10:14:33;101342.56;;;13.78;54.46
61554;BME280;47425;51.976;5.326;2023-12-20T10:17:01;101320.91;;;13.67;53.60
61554;BME280;47425;51.976;5.326;2023-12-20T10:19:29;101333.31;;;13.62;54.09
61554;BME280;47425;51.976;5.326;2023-12-20T10:21:57;101338.78;;;13.54;53.93
61554;BME280;47425;51.976;5.326;2023-12-20T10:24:23;101336.97;;;13.56;54.27
61554;BME280;47425;51.976;5.326;2023-12-20T10:26:55;101334.84;;;13.70;54.42
61554;BME280;47425;51.976;5.326;2023-12-20T10:29:27;101337.91;;;13.53;54.11
61554;BME280;47425;51.976;5.326;2023-12-20T10:31:54;101328.53;;;13.43;54.23
61554;BME280;47425;51.976;5.326;2023-12-20T10:34:22;101329.44;;;13.42;54.73
61554;BME280;47425;51.976;5.326;2023-12-20T10:36:49;101329.88;;;13.59;54.64
61554;BME280;47425;51.976;5.326;2023-12-20T10:39:17;101323.97;;;13.84;54.49
61554;BME280;47425;51.976;5.326;2023-12-20T10:41:45;101323.97;;;13.84;53.67
61554;BME280;47425;51.976;5.326;2023-12-20T10:44:13;101321.38;;;13.83;54.11
61554;BME280;47425;51.976;5.326;2023-12-20T10:46:41;101318.50;;;13.92;53.74
61554;BME280;47425;51.976;5.326;2023-12-20T10:49:12;101313.47;;;13.83;53.46
61554;BME280;47425;51.976;5.326;2023-12-20T10:51:40;101300.19;;;13.87;54.23
61554;BME280;47425;51.976;5.326;2023-12-20T10:54:06;101311.22;;;13.69;53.72
61554;BME280;47425;51.976;5.326;2023-12-20T10:56:36;101312.84;;;13.73;54.27
61554;BME280;47425;51.976;5.326;2023-12-20T10:59:04;101303.75;;;13.86;54.39
61554;BME280;47425;51.976;5.326;2023-12-20T11:01:32;101308.81;;;13.94;53.97
61554;BME280;47425;51.976;5.326;2023-12-20T11:04:00;101312.28;;;13.95;53.94
61554;BME280;47425;51.976;5.326;2023-12-20T11:06:27;101304.19;;;14.02;53.79
61554;BME280;47425;51.976;5.326;2023-12-20T11:08:59;101300.59;;;14.05;53.71
61554;BME280;47425;51.976;5.326;2023-12-20T11:11:37;101300.59;;;14.05;53.70
61554;BME280;47425;51.976;5.326;2023-12-20T11:14:05;101290.63;;;14.16;53.01
61554;BME280;47425;51.976;5.326;2023-12-20T11:16:35;101298.19;;;13.97;53.02
61554;BME280;47425;51.976;5.326;2023-12-20T11:19:04;101291.91;;;14.01;53.67
61554;BME280;47425;51.976;5.326;2023-12-20T11:21:30;101294.84;;;14.22;53.15
61554;BME280;47425;51.976;5.326;2023-12-20T11:23:57;101294.78;;;14.25;53.48
61554;BME280;47425;51.976;5.326;2023-12-20T11:26:26;101287.63;;;14.30;52.86
61554;BME280;47425;51.976;5.326;2023-12-20T11:28:54;101283.94;;;14.36;52.43
61554;BME280;47425;51.976;5.326;2023-12-20T11:31:22;101285.25;;;14.19;52.69
61554;BME280;47425;51.976;5.326;2023-12-20T11:33:48;101285.88;;;14.29;52.93
61554;BME280;47425;51.976;5.326;2023-12-20T11:36:18;101282.03;;;14.39;52.62
61554;BME280;47425;51.976;5.326;2023-12-20T11:38:50;101271.13;;;14.53;52.28
61554;BME280;47425;51.976;5.326;2023-12-20T11:41:22;101270.22;;;14.54;52.62
61554;BME280;47425;51.976;5.326;2023-12-20T11:43:48;101271.25;;;14.49;52.44
61554;BME280;47425;51.976;5.326;2023-12-20T11:46:16;101269.38;;;14.52;52.19
61554;BME280;47425;51.976;5.326;2023-12-20T11:48:42;101271.06;;;14.55;52.19
61554;BME280;47425;51.976;5.326;2023-12-20T11:51:11;101269.53;;;14.48;51.85
61554;BME280;47425;51.976;5.326;2023-12-20T11:53:38;101257.53;;;14.37;52.35
61554;BME280;47425;51.976;5.326;2023-12-20T11:56:05;101267.06;;;14.41;52.33
61554;BME280;47425;51.976;5.326;2023-12-20T11:58:33;101258.66;;;14.29;52.46
61554;BME280;47425;51.976;5.326;2023-12-20T12:00:59;101249.06;;;14.27;52.83
61554;BME280;47425;51.976;5.326;2023-12-20T12:03:28;101249.72;;;14.34;52.91
61554;BME280;47425;51.976;5.326;2023-12-20T12:05:55;101242.72;;;14.33;52.63
61554;BME280;47425;51.976;5.326;2023-12-20T12:08:21;101248.78;;;14.37;52.67
61554;BME280;47425;51.976;5.326;2023-12-20T12:10:48;101236.34;;;14.40;52.86
61554;BME280;47425;51.976;5.326;2023-12-20T12:13:15;101237.84;;;14.19;52.09
61554;BME280;47425;51.976;5.326;2023-12-20T12:15:42;101242.19;;;13.90;53.05
61554;BME280;47425;51.976;5.326;2023-12-20T12:18:09;101240.28;;;13.96;53.61
61554;BME280;47425;51.976;5.326;2023-12-20T12:20:38;101242.66;;;14.05;53.07
61554;BME280;47425;51.976;5.326;2023-12-20T12:23:05;101242.47;;;14.11;53.35
61554;BME280;47425;51.976;5.326;2023-12-20T12:25:32;101249.44;;;14.14;53.21
61554;BME280;47425;51.976;5.326;2023-12-20T12:27:59;101243.13;;;14.19;53.13
61554;BME280;47425;51.976;5.326;2023-12-20T12:30:25;101242.34;;;14.16;52.88
61554;BME280;47425;51.976;5.326;2023-12-20T12:32:53;101244.72;;;13.93;53.32
61554;BME280;47425;51.976;5.326;2023-12-20T12:35:20;101234.25;;;13.92;53.85
61554;BME280;47425;51.976;5.326;2023-12-20T12:37:48;101232.34;;;13.97;53.63
61554;BME280;47425;51.976;5.326;2023-12-20T12:40:15;101224.09;;;14.09;53.77
61554;BME280;47425;51.976;5.326;2023-12-20T12:42:42;101227.25;;;14.22;52.99
61554;BME280;47425;51.976;5.326;2023-12-20T12:45:09;101228.41;;;14.42;53.01
61554;BME280;47425;51.976;5.326;2023-12-20T12:47:36;101222.78;;;14.54;52.08
61554;BME280;47425;51.976;5.326;2023-12-20T12:50:03;101212.47;;;14.47;52.27